sensor_id;sensor_type;location;lat;lon;timestamp;P1;durP1;ratioP1;P2;durP2;ratioP2
20695;SDS011;10507;52.754;13.040;2023-12-29T00:00:22;3.13;;;1.50;;
20695;SDS011;10507;52.754;13.040;2023-12-29T00:02:49;2.73;;;1.30;;
20695;SDS011;10507;52.754;13.040;2023-12-29T00:05:16;4.60;;;1.60;;
20695;SDS011;10507;52.754;13.040;2023-12-29T00:07:43;2.83;;;1.60;;
20695;SDS011;10507;52.754;13.040;2023-12-29T00:10:10;2.83;;;1.57;;
20695;SDS011;10507;52.754;13.040;2023-12-29T00:12:36;3.27;;;1.53;;
20695;SDS011;10507;52.754;13.040;2023-12-29T00:15:05;3.67;;;1.53;;
20695;SDS011;10507;52.754;13.040;2023-12-29T00:17:33;2.43;;;1.30;;
20695;SDS011;10507;52.754;13.040;2023-12-29T00:20:02;3.80;;;1.90;;
20695;SDS011;10507;52.754;13.040;2023-12-29T00:22:29;3.47;;;1.37;;
20695;SDS011;10507;52.754;13.040;2023-12-29T00:24:56;3.43;;;1.60;;
20695;SDS011;10507;52.754;13.040;2023-12-29T00:27:23;3.17;;;1.80;;
20695;SDS011;10507;52.754;13.040;2023-12-29T00:29:50;2.23;;;1.30;;
20695;SDS011;10507;52.754;13.040;2023-12-29T00:32:16;3.13;;;1.60;;
20695;SDS011;10507;52.754;13.040;2023-12-29T00:34:44;3.40;;;1.50;;
20695;SDS011;10507;52.754;13.040;2023-12-29T00:37:11;2.97;;;1.40;;
20695;SDS011;10507;52.754;13.040;2023-12-29T00:39:38;4.43;;;1.90;;
20695;SDS011;10507;52.754;13.040;2023-12-29T00:42:05;2.97;;;1.20;;
20695;SDS011;10507;52.754;13.040;2023-12-29T00:44:32;5.10;;;2.00;;
20695;SDS011;10507;52.754;13.040;2023-12-29T00:46:59;3.00;;;1.30;;
20695;SDS011;10507;52.754;13.040;2023-12-29T00:49:26;6.10;;;1.40;;
20695;SDS011;10507;52.754;13.040;2023-12-29T00:51:54;1.87;;;1.30;;
20695;SDS011;10507;52.754;13.040;2023-12-29T00:54:21;3.63;;;1.60;;
20695;SDS011;10507;52.754;13.040;2023-12-29T00:56:48;3.20;;;1.70;;
20695;SDS011;10507;52.754;13.040;2023-12-29T00:59:15;6.83;;;2.13;;
20695;SDS011;10507;52.754;13.040;2023-12-29T01:01:44;3.10;;;1.50;;
20695;SDS011;10507;52.754;13.040;2023-12-29T01:04:11;3.27;;;1.53;;
20695;SDS011;10507;52.754;13.040;2023-12-29T01:06:38;3.33;;;1.50;;
20695;SDS011;10507;52.754;13.040;2023-12-29T01:09:07;2.77;;;1.40;;
20695;SDS011;10507;52.754;13.040;2023-12-29T01:11:35;5.07;;;1.87;;
20695;SDS011;10507;52.754;13.040;2023-12-29T01:14:02;3.00;;;1.80;;
20695;SDS011;10507;52.754;13.040;2023-12-29T01:16:28;4.43;;;1.50;;
20695;SDS011;10507;52.754;13.040;2023-12-29T01:18:55;2.67;;;1.40;;
20695;SDS011;10507;52.754;13.040;2023-12-29T01:21:22;2.57;;;1.20;;
20695;SDS011;10507;52.754;13.040;2023-12-29T01:23:48;2.88;;;1.42;;
20695;SDS011;10507;52.754;13.040;2023-12-29T01:26:17;3.50;;;1.50;;
20695;SDS011;10507;52.754;13.040;2023-12-29T01:28:43;5.63;;;1.80;;
20695;SDS011;10507;52.754;13.040;2023-12-29T01:31:10;3.53;;;1.33;;
20695;SDS011;10507;52.754;13.040;2023-12-29T01:33:38;4.63;;;1.60;;
20695;SDS011;10507;52.754;13.040;2023-12-29T01:36:05;6.68;;;1.88;;
20695;SDS011;10507;52.754;13.040;2023-12-29T01:38:32;3.87;;;1.47;;
20695;SDS011;10507;52.754;13.040;2023-12-29T01:40:59;2.97;;;1.30;;
20695;SDS011;10507;52.754;13.040;2023-12-29T01:43:27;1.50;;;1.40;;
20695;SDS011;10507;52.754;13.040;2023-12-29T01:45:54;2.22;;;1.40;;
20695;SDS011;10507;52.754;13.040;2023-12-29T01:48:21;4.53;;;1.67;;
20695;SDS011;10507;52.754;13.040;2023-12-29T01:50:49;8.17;;;1.43;;
20695;SDS011;10507;52.754;13.040;2023-12-29T01:53:16;2.10;;;1.67;;
20695;SDS011;10507;52.754;13.040;2023-12-29T01:55:43;4.07;;;1.77;;
20695;SDS011;10507;52.754;13.040;2023-12-29T01:58:11;3.67;;;1.73;;
20695;SDS011;10507;52.754;13.040;2023-12-29T02:00:39;2.90;;;1.50;;
20695;SDS011;10507;52.754;13.040;2023-12-29T02:03:06;3.17;;;1.80;;
20695;SDS011;10507;52.754;13.040;2023-12-29T02:05:33;2.10;;;1.30;;
20695;SDS011;10507;52.754;13.040;2023-12-29T02:08:01;4.28;;;1.90;;
20695;SDS011;10507;52.754;13.040;2023-12-29T02:10:28;2.53;;;1.57;;
20695;SDS011;10507;52.754;13.040;2023-12-29T02:12:55;4.40;;;1.90;;
20695;SDS011;10507;52.754;13.040;2023-12-29T02:15:24;2.40;;;1.20;;
20695;SDS011;10507;52.754;13.040;2023-12-29T02:17:55;3.63;;;1.60;;
20695;SDS011;10507;52.754;13.040;2023-12-29T02:20:27;2.97;;;1.43;;
20695;SDS011;10507;52.754;13.040;2023-12-29T02:22:55;4.07;;;1.60;;
20695;SDS011;10507;52.754;13.040;2023-12-29T02:25:23;3.37;;;1.47;;
20695;SDS011;10507;52.754;13.040;2023-12-29T02:27:51;2.67;;;1.27;;
20695;SDS011;10507;52.754;13.040;2023-12-29T02:30:22;3.13;;;1.57;;
20695;SDS011;10507;52.754;13.040;2023-12-29T02:32:55;2.73;;;1.50;;
20695;SDS011;10507;52.754;13.040;2023-12-29T02:35:27;3.40;;;1.55;;
20695;SDS011;10507;52.754;13.040;2023-12-29T02:37:55;3.23;;;1.23;;
20695;SDS011;10507;52.754;13.040;2023-12-29T02:40:24;4.07;;;1.63;;
20695;SDS011;10507;52.754;13.040;2023-12-29T02:42:51;2.45;;;1.50;;
20695;SDS011;10507;52.754;13.040;2023-12-29T02:45:18;3.07;;;1.60;;
20695;SDS011;10507;52.754;13.040;2023-12-29T02:47:45;4.22;;;1.60;;
20695;SDS011;10507;52.754;13.040;2023-12-29T02:50:12;2.13;;;1.27;;
20695;SDS011;10507;52.754;13.040;2023-12-29T02:52:39;2.78;;;1.50;;
20695;SDS011;10507;52.754;13.040;2023-12-29T02:55:06;2.70;;;1.47;;
20695;SDS011;10507;52.754;13.040;2023-12-29T02:57:35;2.40;;;1.40;;
20695;SDS011;10507;52.754;13.040;2023-12-29T03:00:01;3.72;;;1.45;;
20695;SDS011;10507;52.754;13.040;2023-12-29T03:02:29;2.42;;;1.40;;
20695;SDS011;10507;52.754;13.040;2023-12-29T03:04:55;3.07;;;2.00;;
20695;SDS011;10507;52.754;13.040;2023-12-29T03:07:22;4.07;;;1.53;;
20695;SDS011;10507;52.754;13.040;2023-12-29T03:09:49;2.57;;;1.60;;
20695;SDS011;10507;52.754;13.040;2023-12-29T03:12:15;2.37;;;1.37;;
20695;SDS011;10507;52.754;13.040;2023-12-29T03:14:44;2.83;;;1.30;;
20695;SDS011;10507;52.754;13.040;2023-12-29T03:17:12;4.57;;;2.05;;
20695;SDS011;10507;52.754;13.040;2023-12-29T03:19:39;2.78;;;1.42;;
20695;SDS011;10507;52.754;13.040;2023-12-29T03:22:06;3.57;;;1.67;;
20695;SDS011;10507;52.754;13.040;2023-12-29T03:24:34;6.63;;;1.90;;
20695;SDS011;10507;52.754;13.040;2023-12-29T03:27:01;3.35;;;1.48;;
20695;SDS011;10507;52.754;13.040;2023-12-29T03:29:27;3.10;;;1.58;;
20695;SDS011;10507;52.754;13.040;2023-12-29T03:31:56;3.55;;;1.30;;
20695;SDS011;10507;52.754;13.040;2023-12-29T03:34:23;6.13;;;1.73;;
20695;SDS011;10507;52.754;13.040;2023-12-29T03:36:50;5.23;;;1.60;;
20695;SDS011;10507;52.754;13.040;2023-12-29T03:39:17;5.75;;;1.77;;
20695;SDS011;10507;52.754;13.040;2023-12-29T03:41:43;5.45;;;1.70;;
20695;SDS011;10507;52.754;13.040;2023-12-29T03:44:10;4.10;;;2.30;;
20695;SDS011;10507;52.754;13.040;2023-12-29T03:46:37;3.70;;;1.90;;
20695;SDS011;10507;52.754;13.040;2023-12-29T03:49:05;2.28;;;1.25;;
20695;SDS011;10507;52.754;13.040;2023-12-29T03:51:32;2.70;;;1.25;;
20695;SDS011;10507;52.754;13.040;2023-12-29T03:53:59;2.22;;;1.20;;
20695;SDS011;10507;52.754;13.040;2023-12-29T03:56:26;2.30;;;1.53;;
20695;SDS011;10507;52.754;13.040;2023-12-29T03:58:52;3.85;;;1.40;;
20695;SDS011;10507;52.754;13.040;2023-12-29T04:01:19;2.97;;;1.50;;
20695;SDS011;10507;52.754;13.040;2023-12-29T04:03:46;5.17;;;1.30;;
20695;SDS011;10507;52.754;13.040;2023-12-29T04:06:14;2.25;;;1.40;;
20695;SDS011;10507;52.754;13.040;2023-12-29T04:08:41;4.87;;;1.40;;
20695;SDS011;10507;52.754;13.040;2023-12-29T04:11:07;2.67;;;1.10;;
20695;SDS011;10507;52.754;13.040;2023-12-29T04:13:35;4.82;;;1.35;;
20695;SDS011;10507;52.754;13.040;2023-12-29T04:16:02;2.80;;;1.30;;
20695;SDS011;10507;52.754;13.040;2023-12-29T04:18:28;1.77;;;1.13;;
20695;SDS011;10507;52.754;13.040;2023-12-29T04:20:55;4.32;;;1.40;;
20695;SDS011;10507;52.754;13.040;2023-12-29T04:23:23;2.13;;;1.50;;
20695;SDS011;10507;52.754;13.040;2023-12-29T04:25:50;2.80;;;1.20;;
20695;SDS011;10507;52.754;13.040;2023-12-29T04:28:17;2.03;;;1.30;;
20695;SDS011;10507;52.754;13.040;2023-12-29T04:30:44;2.43;;;1.23;;
20695;SDS011;10507;52.754;13.040;2023-12-29T04:33:10;1.97;;;1.10;;
20695;SDS011;10507;52.754;13.040;2023-12-29T04:35:37;2.50;;;1.30;;
20695;SDS011;10507;52.754;13.040;2023-12-29T04:38:04;2.83;;;1.33;;
20695;SDS011;10507;52.754;13.040;2023-12-29T04:40:32;2.47;;;1.25;;
20695;SDS011;10507;52.754;13.040;2023-12-29T04:42:59;1.75;;;1.30;;
20695;SDS011;10507;52.754;13.040;2023-12-29T04:45:26;2.67;;;1.43;;
20695;SDS011;10507;52.754;13.040;2023-12-29T04:47:54;1.55;;;1.02;;
20695;SDS011;10507;52.754;13.040;2023-12-29T04:50:20;3.73;;;1.37;;
20695;SDS011;10507;52.754;13.040;2023-12-29T04:52:47;2.63;;;1.30;;
20695;SDS011;10507;52.754;13.040;2023-12-29T04:55:14;3.03;;;1.20;;
20695;SDS011;10507;52.754;13.040;2023-12-29T04:57:42;3.08;;;1.17;;
20695;SDS011;10507;52.754;13.040;2023-12-29T05:00:09;1.98;;;0.90;;
20695;SDS011;10507;52.754;13.040;2023-12-29T05:02:36;3.40;;;1.60;;
20695;SDS011;10507;52.754;13.040;2023-12-29T05:05:03;2.23;;;1.63;;
20695;SDS011;10507;52.754;13.040;2023-12-29T05:07:31;2.30;;;1.08;;
20695;SDS011;10507;52.754;13.040;2023-12-29T05:09:57;2.80;;;1.30;;
20695;SDS011;10507;52.754;13.040;2023-12-29T05:12:24;5.57;;;1.60;;
20695;SDS011;10507;52.754;13.040;2023-12-29T05:14:52;2.10;;;1.13;;
20695;SDS011;10507;52.754;13.040;2023-12-29T05:17:19;3.30;;;1.10;;
20695;SDS011;10507;52.754;13.040;2023-12-29T05:19:45;2.37;;;0.90;;
20695;SDS011;10507;52.754;13.040;2023-12-29T05:22:12;2.85;;;1.42;;
20695;SDS011;10507;52.754;13.040;2023-12-29T05:24:42;2.45;;;1.35;;
20695;SDS011;10507;52.754;13.040;2023-12-29T05:27:10;1.60;;;0.97;;
20695;SDS011;10507;52.754;13.040;2023-12-29T05:29:37;2.07;;;1.00;;
20695;SDS011;10507;52.754;13.040;2023-12-29T05:32:05;2.85;;;1.08;;
20695;SDS011;10507;52.754;13.040;2023-12-29T05:34:32;2.80;;;1.10;;
20695;SDS011;10507;52.754;13.040;2023-12-29T05:36:58;3.90;;;1.30;;
20695;SDS011;10507;52.754;13.040;2023-12-29T05:39:24;2.90;;;1.25;;
20695;SDS011;10507;52.754;13.040;2023-12-29T05:41:51;2.17;;;1.00;;
20695;SDS011;10507;52.754;13.040;2023-12-29T05:44:18;2.72;;;1.02;;
20695;SDS011;10507;52.754;13.040;2023-12-29T05:46:46;6.13;;;1.67;;
20695;SDS011;10507;52.754;13.040;2023-12-29T05:49:14;4.93;;;1.80;;
20695;SDS011;10507;52.754;13.040;2023-12-29T05:51:41;1.83;;;1.00;;
20695;SDS011;10507;52.754;13.040;2023-12-29T05:54:08;2.35;;;1.08;;
20695;SDS011;10507;52.754;13.040;2023-12-29T05:56:35;1.10;;;0.90;;
20695;SDS011;10507;52.754;13.040;2023-12-29T05:59:01;4.10;;;1.15;;
20695;SDS011;10507;52.754;13.040;2023-12-29T06:01:28;2.45;;;1.00;;
20695;SDS011;10507;52.754;13.040;2023-12-29T06:03:55;1.95;;;1.00;;
20695;SDS011;10507;52.754;13.040;2023-12-29T06:06:23;1.98;;;1.30;;
20695;SDS011;10507;52.754;13.040;2023-12-29T06:08:50;1.37;;;0.90;;
20695;SDS011;10507;52.754;13.040;2023-12-29T06:11:17;2.60;;;1.13;;
20695;SDS011;10507;52.754;13.040;2023-12-29T06:13:44;1.55;;;1.10;;
20695;SDS011;10507;52.754;13.040;2023-12-29T06:16:16;2.27;;;1.07;;
20695;SDS011;10507;52.754;13.040;2023-12-29T06:18:43;1.70;;;0.90;;
20695;SDS011;10507;52.754;13.040;2023-12-29T06:21:10;1.73;;;0.93;;
20695;SDS011;10507;52.754;13.040;2023-12-29T06:23:44;2.65;;;1.10;;
20695;SDS011;10507;52.754;13.040;2023-12-29T06:26:14;2.42;;;0.80;;
20695;SDS011;10507;52.754;13.040;2023-12-29T06:28:42;1.92;;;1.20;;
20695;SDS011;10507;52.754;13.040;2023-12-29T06:31:09;3.37;;;1.07;;
20695;SDS011;10507;52.754;13.040;2023-12-29T06:33:36;2.17;;;1.00;;
20695;SDS011;10507;52.754;13.040;2023-12-29T06:36:06;2.28;;;1.10;;
20695;SDS011;10507;52.754;13.040;2023-12-29T06:38:34;1.70;;;0.95;;
20695;SDS011;10507;52.754;13.040;2023-12-29T06:41:02;2.60;;;1.30;;
20695;SDS011;10507;52.754;13.040;2023-12-29T06:43:30;4.05;;;1.38;;
20695;SDS011;10507;52.754;13.040;2023-12-29T06:45:57;1.73;;;0.90;;
20695;SDS011;10507;52.754;13.040;2023-12-29T06:48:24;3.60;;;1.00;;
20695;SDS011;10507;52.754;13.040;2023-12-29T06:50:50;3.50;;;1.53;;
20695;SDS011;10507;52.754;13.040;2023-12-29T06:53:17;3.78;;;1.27;;
20695;SDS011;10507;52.754;13.040;2023-12-29T06:55:44;1.38;;;0.80;;
20695;SDS011;10507;52.754;13.040;2023-12-29T06:58:12;1.58;;;0.90;;
20695;SDS011;10507;52.754;13.040;2023-12-29T07:00:39;1.90;;;1.10;;
20695;SDS011;10507;52.754;13.040;2023-12-29T07:03:06;1.87;;;1.13;;
20695;SDS011;10507;52.754;13.040;2023-12-29T07:05:32;2.60;;;1.10;;
20695;SDS011;10507;52.754;13.040;2023-12-29T07:07:59;2.27;;;0.83;;
20695;SDS011;10507;52.754;13.040;2023-12-29T07:10:26;2.85;;;1.10;;
20695;SDS011;10507;52.754;13.040;2023-12-29T07:12:54;1.23;;;0.85;;
20695;SDS011;10507;52.754;13.040;2023-12-29T07:15:22;3.60;;;1.23;;
20695;SDS011;10507;52.754;13.040;2023-12-29T07:17:49;2.00;;;1.33;;
20695;SDS011;10507;52.754;13.040;2023-12-29T07:20:15;2.67;;;1.40;;
20695;SDS011;10507;52.754;13.040;2023-12-29T07:22:42;3.40;;;1.17;;
20695;SDS011;10507;52.754;13.040;2023-12-29T07:25:09;2.70;;;1.60;;
20695;SDS011;10507;52.754;13.040;2023-12-29T07:27:36;2.20;;;0.97;;
20695;SDS011;10507;52.754;13.040;2023-12-29T07:30:03;2.42;;;0.95;;
20695;SDS011;10507;52.754;13.040;2023-12-29T07:32:32;3.90;;;1.17;;
20695;SDS011;10507;52.754;13.040;2023-12-29T07:34:59;2.05;;;0.98;;
20695;SDS011;10507;52.754;13.040;2023-12-29T07:37:25;4.63;;;1.10;;
20695;SDS011;10507;52.754;13.040;2023-12-29T07:39:52;1.52;;;0.82;;
20695;SDS011;10507;52.754;13.040;2023-12-29T07:42:19;2.60;;;1.13;;
20695;SDS011;10507;52.754;13.040;2023-12-29T07:44:46;2.90;;;1.20;;
20695;SDS011;10507;52.754;13.040;2023-12-29T07:47:13;2.65;;;0.93;;
20695;SDS011;10507;52.754;13.040;2023-12-29T07:49:42;2.03;;;1.00;;
20695;SDS011;10507;52.754;13.040;2023-12-29T07:52:09;2.15;;;0.80;;
20695;SDS011;10507;52.754;13.040;2023-12-29T07:54:36;2.23;;;1.03;;
20695;SDS011;10507;52.754;13.040;2023-12-29T07:57:03;2.17;;;1.10;;
20695;SDS011;10507;52.754;13.040;2023-12-29T07:59:30;2.05;;;1.10;;
20695;SDS011;10507;52.754;13.040;2023-12-29T08:01:56;2.63;;;1.03;;
20695;SDS011;10507;52.754;13.040;2023-12-29T08:04:23;2.97;;;1.20;;
20695;SDS011;10507;52.754;13.040;2023-12-29T08:06:51;4.00;;;1.02;;
20695;SDS011;10507;52.754;13.040;2023-12-29T08:09:18;1.73;;;1.20;;
20695;SDS011;10507;52.754;13.040;2023-12-29T08:11:46;3.27;;;1.50;;
20695;SDS011;10507;52.754;13.040;2023-12-29T08:14:13;3.40;;;1.42;;
20695;SDS011;10507;52.754;13.040;2023-12-29T08:16:40;2.20;;;1.00;;
20695;SDS011;10507;52.754;13.040;2023-12-29T08:19:07;2.50;;;1.13;;
20695;SDS011;10507;52.754;13.040;2023-12-29T08:21:35;2.30;;;1.10;;
20695;SDS011;10507;52.754;13.040;2023-12-29T08:24:03;2.00;;;1.17;;
20695;SDS011;10507;52.754;13.040;2023-12-29T08:26:30;3.10;;;1.05;;
20695;SDS011;10507;52.754;13.040;2023-12-29T08:28:56;3.42;;;1.23;;
20695;SDS011;10507;52.754;13.040;2023-12-29T08:31:23;2.65;;;1.23;;
20695;SDS011;10507;52.754;13.040;2023-12-29T08:33:51;1.85;;;1.00;;
20695;SDS011;10507;52.754;13.040;2023-12-29T08:36:18;3.88;;;1.50;;
20695;SDS011;10507;52.754;13.040;2023-12-29T08:38:47;2.65;;;0.88;;
20695;SDS011;10507;52.754;13.040;2023-12-29T08:41:15;4.43;;;1.40;;
20695;SDS011;10507;52.754;13.040;2023-12-29T08:43:43;1.53;;;1.00;;
20695;SDS011;10507;52.754;13.040;2023-12-29T08:46:09;1.73;;;0.85;;
20695;SDS011;10507;52.754;13.040;2023-12-29T08:48:36;1.80;;;1.23;;
20695;SDS011;10507;52.754;13.040;2023-12-29T08:51:03;4.85;;;1.48;;
20695;SDS011;10507;52.754;13.040;2023-12-29T08:53:30;3.30;;;1.00;;
20695;SDS011;10507;52.754;13.040;2023-12-29T08:56:00;4.25;;;1.30;;
20695;SDS011;10507;52.754;13.040;2023-12-29T08:58:28;2.22;;;1.13;;
20695;SDS011;10507;52.754;13.040;2023-12-29T09:00:55;4.55;;;1.25;;
20695;SDS011;10507;52.754;13.040;2023-12-29T09:03:22;1.47;;;0.97;;
20695;SDS011;10507;52.754;13.040;2023-12-29T09:05:48;1.80;;;1.00;;
20695;SDS011;10507;52.754;13.040;2023-12-29T09:08:15;2.65;;;1.20;;
20695;SDS011;10507;52.754;13.040;2023-12-29T09:10:41;3.20;;;1.15;;
20695;SDS011;10507;52.754;13.040;2023-12-29T09:13:08;2.67;;;1.13;;
20695;SDS011;10507;52.754;13.040;2023-12-29T09:15:36;3.63;;;1.20;;
20695;SDS011;10507;52.754;13.040;2023-12-29T09:18:03;1.35;;;0.80;;
20695;SDS011;10507;52.754;13.040;2023-12-29T09:20:31;4.40;;;1.10;;
20695;SDS011;10507;52.754;13.040;2023-12-29T09:22:57;3.65;;;1.17;;
20695;SDS011;10507;52.754;13.040;2023-12-29T09:25:25;3.92;;;1.20;;
20695;SDS011;10507;52.754;13.040;2023-12-29T09:27:51;2.70;;;1.00;;
20695;SDS011;10507;52.754;13.040;2023-12-29T09:30:18;4.13;;;1.17;;
20695;SDS011;10507;52.754;13.040;2023-12-29T09:32:46;3.83;;;1.30;;
20695;SDS011;10507;52.754;13.040;2023-12-29T09:35:13;2.42;;;1.33;;
20695;SDS011;10507;52.754;13.040;2023-12-29T09:37:40;2.60;;;1.27;;
20695;SDS011;10507;52.754;13.040;2023-12-29T09:40:07;3.58;;;1.23;;
20695;SDS011;10507;52.754;13.040;2023-12-29T09:42:36;2.75;;;1.30;;
20695;SDS011;10507;52.754;13.040;2023-12-29T09:45:05;6.45;;;1.13;;
20695;SDS011;10507;52.754;13.040;2023-12-29T09:47:37;3.83;;;1.20;;
20695;SDS011;10507;52.754;13.040;2023-12-29T09:50:07;7.30;;;1.63;;
20695;SDS011;10507;52.754;13.040;2023-12-29T09:52:36;4.18;;;1.20;;
20695;SDS011;10507;52.754;13.040;2023-12-29T09:55:05;3.13;;;1.13;;
20695;SDS011;10507;52.754;13.040;2023-12-29T09:57:35;3.95;;;1.20;;
20695;SDS011;10507;52.754;13.040;2023-12-29T10:00:03;1.55;;;0.90;;
20695;SDS011;10507;52.754;13.040;2023-12-29T10:02:30;3.20;;;1.10;;
20695;SDS011;10507;52.754;13.040;2023-12-29T10:05:00;2.80;;;1.10;;
20695;SDS011;10507;52.754;13.040;2023-12-29T10:07:31;2.47;;;0.90;;
20695;SDS011;10507;52.754;13.040;2023-12-29T10:10:01;4.03;;;1.50;;
20695;SDS011;10507;52.754;13.040;2023-12-29T10:12:32;4.40;;;1.70;;
20695;SDS011;10507;52.754;13.040;2023-12-29T10:15:10;2.60;;;1.00;;
20695;SDS011;10507;52.754;13.040;2023-12-29T10:17:43;3.73;;;0.90;;
20695;SDS011;10507;52.754;13.040;2023-12-29T10:20:22;1.97;;;1.10;;
20695;SDS011;10507;52.754;13.040;2023-12-29T10:22:59;4.67;;;1.10;;
20695;SDS011;10507;52.754;13.040;2023-12-29T10:25:33;4.50;;;1.77;;
20695;SDS011;10507;52.754;13.040;2023-12-29T10:28:01;5.60;;;1.33;;
20695;SDS011;10507;52.754;13.040;2023-12-29T10:30:30;2.60;;;1.30;;
20695;SDS011;10507;52.754;13.040;2023-12-29T10:33:02;3.00;;;1.47;;
20695;SDS011;10507;52.754;13.040;2023-12-29T10:35:38;2.20;;;1.47;;
20695;SDS011;10507;52.754;13.040;2023-12-29T10:38:10;3.60;;;1.10;;
20695;SDS011;10507;52.754;13.040;2023-12-29T10:40:43;3.45;;;1.52;;
20695;SDS011;10507;52.754;13.040;2023-12-29T10:43:21;3.05;;;1.00;;
20695;SDS011;10507;52.754;13.040;2023-12-29T10:45:48;3.65;;;1.30;;
20695;SDS011;10507;52.754;13.040;2023-12-29T10:48:21;3.30;;;1.30;;
20695;SDS011;10507;52.754;13.040;2023-12-29T10:50:51;5.30;;;1.60;;
20695;SDS011;10507;52.754;13.040;2023-12-29T10:53:30;1.80;;;1.10;;
20695;SDS011;10507;52.754;13.040;2023-12-29T10:56:03;4.72;;;1.40;;
20695;SDS011;10507;52.754;13.040;2023-12-29T10:59:00;6.40;;;1.38;;
20695;SDS011;10507;52.754;13.040;2023-12-29T11:01:28;5.15;;;1.60;;
20695;SDS011;10507;52.754;13.040;2023-12-29T11:03:59;2.70;;;1.70;;
20695;SDS011;10507;52.754;13.040;2023-12-29T11:06:39;4.57;;;2.25;;
20695;SDS011;10507;52.754;13.040;2023-12-29T11:09:10;5.00;;;1.35;;
20695;SDS011;10507;52.754;13.040;2023-12-29T11:11:38;4.38;;;1.67;;
20695;SDS011;10507;52.754;13.040;2023-12-29T11:14:05;4.72;;;2.40;;
20695;SDS011;10507;52.754;13.040;2023-12-29T11:16:36;7.78;;;2.45;;
20695;SDS011;10507;52.754;13.040;2023-12-29T11:19:04;7.60;;;2.20;;
20695;SDS011;10507;52.754;13.040;2023-12-29T11:21:35;5.80;;;1.70;;
20695;SDS011;10507;52.754;13.040;2023-12-29T11:24:26;5.00;;;1.83;;
20695;SDS011;10507;52.754;13.040;2023-12-29T11:26:56;7.60;;;1.55;;
20695;SDS011;10507;52.754;13.040;2023-12-29T11:29:23;4.30;;;1.55;;
20695;SDS011;10507;52.754;13.040;2023-12-29T11:31:51;5.82;;;1.50;;
20695;SDS011;10507;52.754;13.040;2023-12-29T11:34:20;7.22;;;1.70;;
20695;SDS011;10507;52.754;13.040;2023-12-29T11:36:52;18.33;;;9.05;;
20695;SDS011;10507;52.754;13.040;2023-12-29T11:42:23;26.67;;;14.02;;
20695;SDS011;10507;52.754;13.040;2023-12-29T11:45:23;28.33;;;14.77;;
20695;SDS011;10507;52.754;13.040;2023-12-29T11:47:53;9.50;;;3.42;;
20695;SDS011;10507;52.754;13.040;2023-12-29T11:50:28;19.58;;;9.18;;
20695;SDS011;10507;52.754;13.040;2023-12-29T11:52:57;15.50;;;8.35;;
20695;SDS011;10507;52.754;13.040;2023-12-29T11:55:27;23.58;;;9.73;;
20695;SDS011;10507;52.754;13.040;2023-12-29T11:58:01;11.40;;;5.75;;
20695;SDS011;10507;52.754;13.040;2023-12-29T12:00:45;18.38;;;8.27;;
20695;SDS011;10507;52.754;13.040;2023-12-29T12:03:16;8.38;;;3.00;;
20695;SDS011;10507;52.754;13.040;2023-12-29T12:05:49;8.63;;;3.72;;
20695;SDS011;10507;52.754;13.040;2023-12-29T12:08:30;10.00;;;4.72;;
20695;SDS011;10507;52.754;13.040;2023-12-29T12:11:40;12.98;;;6.65;;
20695;SDS011;10507;52.754;13.040;2023-12-29T12:14:10;13.27;;;6.05;;
20695;SDS011;10507;52.754;13.040;2023-12-29T12:16:48;15.75;;;7.03;;
20695;SDS011;10507;52.754;13.040;2023-12-29T12:19:19;4.35;;;0.90;;
20695;SDS011;10507;52.754;13.040;2023-12-29T12:21:49;6.47;;;1.00;;
20695;SDS011;10507;52.754;13.040;2023-12-29T12:24:20;3.90;;;0.93;;
20695;SDS011;10507;52.754;13.040;2023-12-29T12:26:47;4.57;;;0.98;;
20695;SDS011;10507;52.754;13.040;2023-12-29T12:29:15;4.38;;;1.00;;
20695;SDS011;10507;52.754;13.040;2023-12-29T12:31:51;2.80;;;0.80;;
20695;SDS011;10507;52.754;13.040;2023-12-29T12:34:19;3.90;;;0.98;;
20695;SDS011;10507;52.754;13.040;2023-12-29T12:36:49;7.15;;;1.02;;
20695;SDS011;10507;52.754;13.040;2023-12-29T12:39:16;2.38;;;0.68;;
20695;SDS011;10507;52.754;13.040;2023-12-29T12:41:43;1.02;;;0.70;;
20695;SDS011;10507;52.754;13.040;2023-12-29T12:44:11;1.35;;;0.60;;
20695;SDS011;10507;52.754;13.040;2023-12-29T12:46:41;1.08;;;0.50;;
20695;SDS011;10507;52.754;13.040;2023-12-29T12:49:16;2.45;;;0.60;;
20695;SDS011;10507;52.754;13.040;2023-12-29T12:51:43;1.27;;;0.45;;
20695;SDS011;10507;52.754;13.040;2023-12-29T12:54:11;1.48;;;0.75;;
20695;SDS011;10507;52.754;13.040;2023-12-29T12:56:40;1.67;;;0.60;;
20695;SDS011;10507;52.754;13.040;2023-12-29T12:59:10;0.80;;;0.63;;
20695;SDS011;10507;52.754;13.040;2023-12-29T13:01:37;2.92;;;0.70;;
20695;SDS011;10507;52.754;13.040;2023-12-29T13:04:06;1.58;;;0.60;;
20695;SDS011;10507;52.754;13.040;2023-12-29T13:06:33;1.05;;;0.60;;
20695;SDS011;10507;52.754;13.040;2023-12-29T13:09:05;4.05;;;0.90;;
20695;SDS011;10507;52.754;13.040;2023-12-29T13:11:36;2.63;;;0.70;;
20695;SDS011;10507;52.754;13.040;2023-12-29T13:14:03;2.28;;;0.70;;
20695;SDS011;10507;52.754;13.040;2023-12-29T13:16:30;2.25;;;0.73;;
20695;SDS011;10507;52.754;13.040;2023-12-29T13:21:47;2.17;;;0.70;;
20695;SDS011;10507;52.754;13.040;2023-12-29T13:24:14;2.47;;;1.00;;
20695;SDS011;10507;52.754;13.040;2023-12-29T13:26:42;2.15;;;0.75;;
20695;SDS011;10507;52.754;13.040;2023-12-29T13:29:13;0.77;;;0.60;;
20695;SDS011;10507;52.754;13.040;2023-12-29T13:31:40;3.42;;;0.60;;
20695;SDS011;10507;52.754;13.040;2023-12-29T13:34:11;1.80;;;0.80;;
20695;SDS011;10507;52.754;13.040;2023-12-29T13:36:43;1.92;;;0.90;;
20695;SDS011;10507;52.754;13.040;2023-12-29T13:39:21;2.45;;;1.25;;
20695;SDS011;10507;52.754;13.040;2023-12-29T13:41:54;2.28;;;0.95;;
20695;SDS011;10507;52.754;13.040;2023-12-29T13:44:23;2.33;;;0.80;;
20695;SDS011;10507;52.754;13.040;2023-12-29T13:46:52;1.88;;;1.02;;
20695;SDS011;10507;52.754;13.040;2023-12-29T13:49:21;2.67;;;1.17;;
20695;SDS011;10507;52.754;13.040;2023-12-29T13:51:49;2.58;;;1.10;;
20695;SDS011;10507;52.754;13.040;2023-12-29T13:54:16;4.55;;;1.00;;
20695;SDS011;10507;52.754;13.040;2023-12-29T13:56:53;4.22;;;2.30;;
20695;SDS011;10507;52.754;13.040;2023-12-29T13:59:28;2.70;;;0.80;;
20695;SDS011;10507;52.754;13.040;2023-12-29T14:01:56;2.53;;;1.17;;
20695;SDS011;10507;52.754;13.040;2023-12-29T14:04:24;5.10;;;1.48;;
20695;SDS011;10507;52.754;13.040;2023-12-29T14:06:53;1.93;;;1.37;;
20695;SDS011;10507;52.754;13.040;2023-12-29T14:09:26;2.67;;;0.90;;
20695;SDS011;10507;52.754;13.040;2023-12-29T14:11:54;1.37;;;0.60;;
20695;SDS011;10507;52.754;13.040;2023-12-29T14:14:22;1.70;;;0.80;;
20695;SDS011;10507;52.754;13.040;2023-12-29T14:16:50;3.33;;;1.05;;
20695;SDS011;10507;52.754;13.040;2023-12-29T14:19:17;3.22;;;1.08;;
20695;SDS011;10507;52.754;13.040;2023-12-29T14:21:44;3.45;;;1.40;;
20695;SDS011;10507;52.754;13.040;2023-12-29T14:24:14;3.85;;;1.35;;
20695;SDS011;10507;52.754;13.040;2023-12-29T14:26:43;2.60;;;1.10;;
20695;SDS011;10507;52.754;13.040;2023-12-29T14:29:22;2.50;;;1.38;;
20695;SDS011;10507;52.754;13.040;2023-12-29T14:31:49;3.05;;;1.13;;
20695;SDS011;10507;52.754;13.040;2023-12-29T14:34:17;3.28;;;0.98;;
20695;SDS011;10507;52.754;13.040;2023-12-29T14:36:44;1.77;;;1.00;;
20695;SDS011;10507;52.754;13.040;2023-12-29T14:39:11;1.42;;;0.80;;
20695;SDS011;10507;52.754;13.040;2023-12-29T14:41:39;0.70;;;0.70;;
20695;SDS011;10507;52.754;13.040;2023-12-29T14:44:06;1.02;;;0.90;;
20695;SDS011;10507;52.754;13.040;2023-12-29T14:46:33;1.33;;;0.63;;